Brownsville, Wisconsin
Current Conditions -  °F | °C
As of 12:53 PM on Friday 21 Nov 2014 (Local Time) from KFLD Reporting Station
Clear Clear  
Wind Chill: 15°   Ceiling: Unl
Heat Index: 27°   Visibility: 10mi
Dew Point:   Wind: 16mph
Humidity: 41%   Direction: 210°SSW
Pressure: 30.3"   Gusts: NA
Location:  43.62°N, 88.49°W
Report Text: KFLD 211853Z AUTO 21014KT 10SM CLR M03/M14 A3030 RMK AO2 SLP276 T10281144
Loading
Personal Weather Stations






























Interactive Weather Map New forecast layout! Learn more

10-Day Weather Forecast

Advertisements
Track Severe Weather on mobile